Time;durP1;ratioP1;P1;durP2;ratioP2;P2;SDS_P1;SDS_P2;PMS_P1;PMS_P2;Temp;Humidity;BMP_temperature;BMP_pressure;BME280_temperature;BME280_humidity;BME280_pressure;Samples;Min_cycle;Max_cycle;Signal;HPM_P1;HPM_P2
2022/05/01 00:00:13;;;;;;;12.20;9.70;;;12.00;99.90;;;;;;5053811;28;20044;-64
2022/05/01 00:02:40;;;;;;;11.38;8.65;;;12.00;99.90;;;;;;5052671;28;20048;-69
2022/05/01 00:05:08;;;;;;;15.93;13.77;;;12.00;99.90;;;;;;5052221;28;20044;-61
2022/05/01 00:07:34;;;;;;;291.80;259.73;;;11.90;99.90;;;;;;5053750;28;20045;-67
2022/05/01 00:10:02;;;;;;;136.00;124.78;;;12.00;99.90;;;;;;5054258;28;20070;-68
2022/05/01 00:12:29;;;;;;;19.73;17.33;;;12.00;99.90;;;;;;5053313;28;20048;-65
2022/05/01 00:14:56;;;;;;;13.25;10.35;;;12.00;99.90;;;;;;5054250;28;20037;-65
2022/05/01 00:17:23;;;;;;;11.75;8.73;;;12.00;99.90;;;;;;5053034;28;20049;-67
2022/05/01 00:19:50;;;;;;;11.43;8.27;;;12.00;99.90;;;;;;5053278;28;20037;-65
2022/05/01 00:22:18;;;;;;;11.70;8.10;;;12.00;99.90;;;;;;5052553;28;20061;-61
2022/05/01 00:24:45;;;;;;;21.55;16.98;;;12.00;99.90;;;;;;5052601;28;20052;-65
2022/05/01 00:27:12;;;;;;;155.90;132.13;;;12.10;99.90;;;;;;5052841;28;20052;-62
2022/05/01 00:29:39;;;;;;;153.43;70.60;;;12.10;99.90;;;;;;5054084;28;20392;-63
2022/05/01 00:32:07;;;;;;;24.08;15.10;;;12.10;99.90;;;;;;5052294;28;20384;-67
2022/05/01 00:37:20;;;;;;;11.93;8.15;;;12.10;99.90;;;;;;5038332;28;20098;-67
2022/05/01 00:39:47;;;;;;;11.82;7.35;;;12.10;99.90;;;;;;5053362;28;20041;-66
2022/05/01 00:42:18;;;;;;;16.77;10.32;;;12.10;99.90;;;;;;5053016;28;20037;-64
2022/05/01 00:44:45;;;;;;;8.38;6.70;;;12.10;99.90;;;;;;5054205;28;20049;-67
2022/05/01 00:47:12;;;;;;;8.80;6.93;;;12.10;99.90;;;;;;5052872;28;20045;-62
2022/05/01 00:49:39;;;;;;;17.95;11.38;;;12.00;99.90;;;;;;5053301;28;20099;-66
2022/05/01 00:52:09;;;;;;;18.92;15.80;;;12.10;99.90;;;;;;5053474;28;20538;-64
2022/05/01 00:54:37;;;;;;;102.00;92.10;;;12.10;99.90;;;;;;5052985;28;20041;-63
2022/05/01 00:57:05;;;;;;;36.40;32.55;;;12.20;99.90;;;;;;5052099;28;20380;-66
2022/05/01 00:59:33;;;;;;;10.55;7.55;;;12.30;99.90;;;;;;5052921;28;20476;-61
2022/05/01 01:02:00;;;;;;;7.43;6.13;;;12.30;99.90;;;;;;5051649;28;20040;-63
2022/05/01 01:04:27;;;;;;;10.40;7.18;;;12.20;99.90;;;;;;5035805;28;20168;-64
2022/05/01 01:06:54;;;;;;;8.07;5.72;;;12.20;99.90;;;;;;5051633;28;20051;-64
2022/05/01 01:09:21;;;;;;;9.35;5.65;;;12.20;99.90;;;;;;5036056;28;20069;-63
2022/05/01 01:12:53;;;;;;;8.10;5.82;;;12.20;99.90;;;;;;5052868;28;20060;-63
2022/05/01 01:14:35;;;;;;;50.88;43.08;;;12.20;99.90;;;;;;5052152;28;20376;-64
2022/05/01 01:17:02;;;;;;;243.80;196.18;;;12.20;99.90;;;;;;5051584;28;20053;-62
2022/05/01 01:19:29;;;;;;;142.00;116.72;;;12.30;99.90;;;;;;5053489;28;20045;-67
2022/05/01 01:21:56;;;;;;;65.15;53.00;;;12.30;99.90;;;;;;5052762;28;20037;-65
2022/05/01 01:24:22;;;;;;;670.00;388.88;;;12.30;99.90;;;;;;5051452;28;20057;-66
2022/05/01 01:26:49;;;;;;;241.30;183.73;;;12.20;99.90;;;;;;5051749;28;20052;-65
2022/05/01 01:32:01;;;;;;;19.38;17.20;;;12.20;99.90;;;;;;5055588;28;20044;-65
2022/05/01 01:34:31;;;;;;;13.35;10.80;;;12.20;99.90;;;;;;5056225;28;20120;-64
2022/05/01 01:36:58;;;;;;;10.35;7.70;;;12.20;99.90;;;;;;5022492;28;20045;-64
2022/05/01 01:39:25;;;;;;;8.23;5.95;;;12.20;99.90;;;;;;5038924;28;20056;-64
2022/05/01 01:41:54;;;;;;;8.32;6.38;;;12.20;99.90;;;;;;5038610;28;20411;-64
2022/05/01 01:44:21;;;;;;;9.43;5.88;;;12.20;99.90;;;;;;5055295;28;20060;-63
2022/05/01 01:46:49;;;;;;;9.18;6.82;;;12.20;99.90;;;;;;5038971;28;20056;-64
2022/05/01 01:49:16;;;;;;;10.32;6.53;;;12.10;99.90;;;;;;5056073;28;20543;-63
2022/05/01 01:51:43;;;;;;;9.63;6.50;;;12.10;99.90;;;;;;5056252;28;20045;-64
2022/05/01 01:54:10;;;;;;;8.57;5.82;;;12.10;99.90;;;;;;5056772;28;20040;-64
2022/05/01 01:56:37;;;;;;;8.15;6.53;;;12.10;99.90;;;;;;5054741;28;20403;-64
2022/05/01 01:59:04;;;;;;;7.35;6.65;;;12.10;99.90;;;;;;5054694;28;20513;-64
2022/05/01 02:01:32;;;;;;;9.10;6.40;;;12.10;99.90;;;;;;5056715;28;20056;-64
2022/05/01 02:03:59;;;;;;;12.95;6.70;;;12.10;99.90;;;;;;5055775;28;20041;-63
2022/05/01 02:06:26;;;;;;;8.75;6.70;;;12.00;99.90;;;;;;5055121;28;20044;-64
2022/05/01 02:08:53;;;;;;;9.02;6.00;;;12.00;99.90;;;;;;5055345;28;20041;-64
2022/05/01 02:11:20;;;;;;;8.15;6.47;;;12.00;99.90;;;;;;5056505;28;20056;-63
2022/05/01 02:13:47;;;;;;;11.10;7.68;;;12.00;99.90;;;;;;5054778;28;20041;-64
2022/05/01 02:16:14;;;;;;;11.10;7.03;;;12.00;99.90;;;;;;5054691;28;20048;-65
2022/05/01 02:18:42;;;;;;;10.70;6.95;;;12.00;99.90;;;;;;5055501;28;20041;-64
2022/05/01 02:23:54;;;;;;;11.23;7.20;;;12.00;99.90;;;;;;5055533;28;20099;-64
2022/05/01 02:26:21;;;;;;;10.70;6.50;;;12.00;99.90;;;;;;5056780;28;20045;-64
2022/05/01 02:28:48;;;;;;;10.95;6.82;;;12.00;99.90;;;;;;5056202;28;20122;-64
2022/05/01 02:31:15;;;;;;;12.77;8.45;;;11.90;99.90;;;;;;5055305;28;20052;-64
2022/05/01 02:33:43;;;;;;;10.93;6.78;;;11.90;99.90;;;;;;5037721;28;20442;-64
2022/05/01 02:36:10;;;;;;;11.05;7.57;;;11.90;99.90;;;;;;5056082;28;20045;-64
2022/05/01 02:38:37;;;;;;;10.43;7.35;;;11.90;99.90;;;;;;5053770;28;20048;-64
2022/05/01 02:41:04;;;;;;;11.38;7.57;;;11.90;99.90;;;;;;5055137;28;20048;-64
2022/05/01 02:43:31;;;;;;;9.00;7.05;;;11.90;99.90;;;;;;5055028;28;20041;-63
2022/05/01 02:45:57;;;;;;;10.82;7.90;;;11.90;99.90;;;;;;5054817;28;20049;-64
2022/05/01 02:48:24;;;;;;;10.73;8.40;;;11.90;99.90;;;;;;5055361;28;20041;-64
2022/05/01 02:50:51;;;;;;;13.80;9.13;;;11.90;99.90;;;;;;5054590;28;20067;-64
2022/05/01 02:53:18;;;;;;;9.25;7.47;;;11.80;99.90;;;;;;5055757;28;20150;-63
2022/05/01 02:55:45;;;;;;;11.18;8.25;;;11.80;99.90;;;;;;5053561;28;20045;-63
2022/05/01 02:58:12;;;;;;;11.65;7.93;;;11.80;99.90;;;;;;5053892;28;20041;-64
2022/05/01 03:00:40;;;;;;;11.35;7.88;;;11.80;99.90;;;;;;5055079;28;20049;-64
2022/05/01 03:03:07;;;;;;;13.10;9.10;;;11.80;99.90;;;;;;5055814;28;20098;-64
2022/05/01 03:05:34;;;;;;;12.35;8.55;;;11.80;99.90;;;;;;5054963;28;20128;-64
2022/05/01 03:08:01;;;;;;;14.02;9.32;;;11.80;99.90;;;;;;5055659;28;20049;-64
2022/05/01 03:10:26;;;;;;;13.40;8.70;;;11.80;99.90;;;;;;5053735;28;20037;-64
2022/05/01 03:12:53;;;;;;;15.52;8.50;;;11.80;99.90;;;;;;5053316;28;20044;-64
2022/05/01 03:15:24;;;;;;;13.30;8.80;;;11.80;99.90;;;;;;5037628;28;20045;-64
2022/05/01 03:23:22;;;;;;;10.88;8.43;;;11.80;99.90;;;;;;5055513;28;20052;-64
2022/05/01 03:25:49;;;;;;;13.05;8.70;;;11.80;99.90;;;;;;5055109;28;20068;-64
2022/05/01 03:28:16;;;;;;;10.10;8.73;;;11.80;99.90;;;;;;5053127;28;20045;-64
2022/05/01 03:30:43;;;;;;;14.02;9.68;;;11.80;99.90;;;;;;5054217;28;20041;-64
2022/05/01 03:33:10;;;;;;;12.40;8.70;;;11.80;99.90;;;;;;5053222;28;20045;-64
2022/05/01 03:35:37;;;;;;;9.95;7.72;;;11.70;99.90;;;;;;5054050;28;20041;-64
2022/05/01 03:38:06;;;;;;;12.63;9.05;;;11.70;99.90;;;;;;5054924;28;20461;-64
2022/05/01 03:40:35;;;;;;;10.70;8.57;;;11.70;99.90;;;;;;5053073;28;20103;-64
2022/05/01 03:43:05;;;;;;;11.10;7.88;;;11.80;99.90;;;;;;5054131;28;20037;-64
2022/05/01 03:45:32;;;;;;;10.93;7.90;;;11.70;99.90;;;;;;5053578;28;20053;-64
2022/05/01 03:47:59;;;;;;;11.35;7.85;;;11.70;99.90;;;;;;5052777;28;20048;-64
2022/05/01 03:50:27;;;;;;;10.73;7.38;;;11.80;99.90;;;;;;5052113;28;20037;-64
2022/05/01 03:52:54;;;;;;;9.73;7.72;;;11.70;99.90;;;;;;5036422;28;20071;-64
2022/05/01 03:55:22;;;;;;;11.07;7.97;;;11.70;99.90;;;;;;5053626;28;20037;-64
2022/05/01 03:57:49;;;;;;;11.00;7.97;;;11.70;99.90;;;;;;5054211;28;20041;-64
2022/05/01 04:00:19;;;;;;;12.45;8.60;;;11.70;99.90;;;;;;5054455;28;20048;-64
2022/05/01 04:02:46;;;;;;;9.15;7.38;;;11.70;99.90;;;;;;5053916;28;20052;-64
2022/05/01 04:05:13;;;;;;;10.05;7.63;;;11.70;99.90;;;;;;5052692;28;20041;-65
2022/05/01 04:07:41;;;;;;;11.23;8.15;;;11.70;99.90;;;;;;5053893;28;20052;-65
2022/05/01 04:10:08;;;;;;;9.80;8.55;;;11.70;99.90;;;;;;5052502;28;20087;-64
2022/05/01 04:12:53;;;;;;;12.70;7.78;;;11.60;99.90;;;;;;5052482;28;20041;-64
2022/05/01 04:15:20;;;;;;;10.02;8.15;;;11.60;99.90;;;;;;5054531;28;20056;-64
2022/05/01 04:17:47;;;;;;;10.15;6.90;;;11.60;99.90;;;;;;5053293;28;20049;-64
2022/05/01 04:20:15;;;;;;;11.18;7.30;;;11.60;99.90;;;;;;5053576;28;20419;-65
2022/05/01 04:22:46;;;;;;;7.97;7.18;;;11.60;99.90;;;;;;5052430;28;20056;-65
2022/05/01 04:25:20;;;;;;;10.80;7.97;;;11.60;99.90;;;;;;5053314;28;20126;-65
2022/05/01 04:27:51;;;;;;;10.70;7.47;;;11.60;99.90;;;;;;5054335;28;20337;-65
2022/05/01 04:30:19;;;;;;;16.38;8.25;;;11.60;99.90;;;;;;5053267;28;20041;-65
2022/05/01 04:32:50;;;;;;;10.50;7.22;;;11.60;99.90;;;;;;5053449;28;20044;-65
2022/05/01 04:35:21;;;;;;;10.30;7.88;;;11.60;99.90;;;;;;5053963;28;20040;-65
2022/05/01 04:37:49;;;;;;;8.70;7.03;;;11.60;99.90;;;;;;5053164;28;20041;-65
2022/05/01 04:40:17;;;;;;;12.40;7.65;;;11.60;99.90;;;;;;5052265;28;20124;-65
2022/05/01 04:42:44;;;;;;;9.23;7.20;;;11.60;99.90;;;;;;5053406;28;20136;-65
2022/05/01 04:45:11;;;;;;;10.63;7.72;;;11.60;99.90;;;;;;5052184;28;20455;-64
2022/05/01 04:47:38;;;;;;;12.18;7.30;;;11.60;99.90;;;;;;5053344;28;20064;-64
2022/05/01 04:50:06;;;;;;;8.57;7.15;;;11.60;99.90;;;;;;5052288;28;20048;-64
2022/05/01 04:52:36;;;;;;;9.00;7.43;;;11.60;99.90;;;;;;5053001;28;20472;-64
2022/05/01 04:55:05;;;;;;;10.30;7.18;;;11.60;99.90;;;;;;5052040;28;20056;-63
2022/05/01 04:57:32;;;;;;;13.75;6.55;;;11.60;99.90;;;;;;5053770;28;20368;-64
2022/05/01 05:00:00;;;;;;;9.88;6.97;;;11.60;99.90;;;;;;5053999;28;20049;-64
2022/05/01 05:02:41;;;;;;;10.68;7.47;;;11.60;99.90;;;;;;5055268;28;20044;-65
2022/05/01 05:05:09;;;;;;;10.45;7.22;;;11.70;99.90;;;;;;5041217;28;20124;-65
2022/05/01 05:07:37;;;;;;;9.15;6.88;;;11.70;99.90;;;;;;5057241;28;20049;-64
2022/05/01 05:10:05;;;;;;;9.88;7.10;;;11.70;99.90;;;;;;5055623;28;20049;-64
2022/05/01 05:12:32;;;;;;;9.02;7.15;;;11.70;99.90;;;;;;5057926;28;20403;-64
2022/05/01 05:15:00;;;;;;;10.25;7.65;;;11.70;99.90;;;;;;5039898;28;20045;-64
2022/05/01 05:17:29;;;;;;;9.05;7.18;;;11.70;99.90;;;;;;5055950;28;20468;-64
2022/05/01 05:19:55;;;;;;;8.02;7.10;;;11.70;99.90;;;;;;5055983;28;20041;-64
2022/05/01 05:22:22;;;;;;;7.07;6.20;;;11.80;99.90;;;;;;5056557;28;20048;-64
2022/05/01 05:24:49;;;;;;;9.32;7.45;;;11.80;99.90;;;;;;5055664;28;20056;-65
2022/05/01 05:27:20;;;;;;;8.90;7.28;;;11.80;99.90;;;;;;5056801;28;20041;-65
2022/05/01 05:29:49;;;;;;;10.48;7.28;;;11.80;99.90;;;;;;5040285;28;20045;-65
2022/05/01 05:32:16;;;;;;;10.27;7.45;;;11.90;99.90;;;;;;5055525;28;20056;-65
2022/05/01 05:34:43;;;;;;;11.10;7.78;;;11.90;99.90;;;;;;5055992;28;20045;-64
2022/05/01 05:37:10;;;;;;;9.43;7.50;;;11.90;99.90;;;;;;5056542;28;20151;-65
2022/05/01 05:39:37;;;;;;;10.70;6.85;;;11.90;99.90;;;;;;5055413;28;20107;-65
2022/05/01 05:42:04;;;;;;;12.73;8.18;;;11.90;99.90;;;;;;5056618;28;20053;-65
2022/05/01 05:44:31;;;;;;;8.57;6.90;;;11.90;99.90;;;;;;5056234;28;20055;-65
2022/05/01 05:46:58;;;;;;;9.70;7.13;;;12.00;99.90;;;;;;5055178;28;20053;-65
2022/05/01 05:49:25;;;;;;;9.10;7.38;;;12.00;99.90;;;;;;5054747;28;20047;-65
2022/05/01 05:51:52;;;;;;;8.02;6.65;;;12.00;99.90;;;;;;5056067;28;20036;-65
2022/05/01 05:54:19;;;;;;;10.68;6.43;;;12.00;99.90;;;;;;5054813;28;20037;-65
2022/05/01 05:56:46;;;;;;;11.60;7.10;;;12.10;99.90;;;;;;5056204;28;20081;-65
2022/05/01 05:59:15;;;;;;;12.75;7.45;;;12.10;99.90;;;;;;5038457;28;20480;-65
2022/05/01 06:01:42;;;;;;;10.45;7.45;;;12.10;99.90;;;;;;5055375;28;20467;-65
2022/05/01 06:04:09;;;;;;;9.82;6.63;;;12.20;99.90;;;;;;5054721;28;20128;-65
2022/05/01 06:06:36;;;;;;;10.65;6.82;;;12.20;99.90;;;;;;5056122;28;20049;-65
2022/05/01 06:09:03;;;;;;;9.00;6.72;;;12.20;99.90;;;;;;5055798;28;20369;-65
2022/05/01 06:11:30;;;;;;;10.48;7.68;;;12.30;99.90;;;;;;5055589;28;20325;-65
2022/05/01 06:13:57;;;;;;;9.75;6.45;;;12.30;99.90;;;;;;5054803;28;20472;-65
2022/05/01 06:16:23;;;;;;;9.15;6.95;;;12.40;99.90;;;;;;5056604;28;20396;-65
2022/05/01 06:18:50;;;;;;;9.98;7.00;;;12.50;99.90;;;;;;5054297;28;20441;-65
2022/05/01 06:21:17;;;;;;;9.02;7.10;;;12.50;99.90;;;;;;5056366;28;20045;-65
2022/05/01 06:23:47;;;;;;;9.55;6.95;;;12.60;99.90;;;;;;5055746;28;20051;-65
2022/05/01 06:26:14;;;;;;;8.23;6.72;;;12.60;99.90;;;;;;5054633;28;20103;-65
2022/05/01 06:28:41;;;;;;;7.80;6.90;;;12.70;99.90;;;;;;5054138;28;20044;-65
2022/05/01 06:31:08;;;;;;;18.65;8.27;;;12.80;99.90;;;;;;5055340;28;20052;-66
2022/05/01 06:33:35;;;;;;;9.90;6.60;;;12.80;99.90;;;;;;5055652;28;20045;-65
2022/05/01 06:36:03;;;;;;;10.63;7.70;;;12.90;99.90;;;;;;5037572;28;20091;-65
2022/05/01 06:38:29;;;;;;;9.15;7.07;;;13.00;99.90;;;;;;5054164;28;20041;-65
2022/05/01 06:40:56;;;;;;;14.73;7.75;;;13.00;99.90;;;;;;5055414;28;20040;-65
2022/05/01 06:43:23;;;;;;;9.63;6.95;;;13.10;99.90;;;;;;5053816;28;20131;-65
2022/05/01 06:45:50;;;;;;;8.55;7.43;;;13.10;99.90;;;;;;5056027;28;20056;-66
2022/05/01 06:48:18;;;;;;;13.40;7.75;;;13.20;99.90;;;;;;5054894;28;20041;-65
2022/05/01 06:50:45;;;;;;;9.63;7.97;;;13.30;99.90;;;;;;5053849;28;20495;-65
2022/05/01 06:53:12;;;;;;;8.07;6.97;;;13.40;99.90;;;;;;5037346;28;20049;-65
2022/05/01 06:55:39;;;;;;;9.20;7.38;;;13.40;99.90;;;;;;5055885;28;20067;-65
2022/05/01 06:58:06;;;;;;;14.25;8.32;;;13.60;99.90;;;;;;5053757;28;20044;-65
2022/05/01 07:00:33;;;;;;;9.13;7.28;;;13.70;99.90;;;;;;5054709;28;20047;-65
2022/05/01 07:03:00;;;;;;;11.90;7.30;;;13.80;99.90;;;;;;5055537;28;20040;-65
2022/05/01 07:05:27;;;;;;;12.40;7.63;;;14.00;99.70;;;;;;5054888;28;20080;-65
2022/05/01 07:07:54;;;;;;;10.48;7.35;;;14.20;99.50;;;;;;5053644;28;20049;-65
2022/05/01 07:10:22;;;;;;;10.00;7.72;;;14.30;96.40;;;;;;5036917;28;20051;-65
2022/05/01 07:12:49;;;;;;;10.15;7.00;;;14.50;97.00;;;;;;5053271;28;20041;-65
2022/05/01 07:15:16;;;;;;;11.88;7.20;;;14.60;95.90;;;;;;5053668;28;20358;-65
2022/05/01 07:17:43;;;;;;;8.35;6.28;;;14.80;93.80;;;;;;5054269;28;20052;-65
2022/05/01 07:20:10;;;;;;;11.35;7.28;;;15.00;90.60;;;;;;5054253;28;20040;-65
2022/05/01 07:22:44;;;;;;;8.60;6.95;;;15.10;90.00;;;;;;5055436;28;20091;-65
2022/05/01 07:25:11;;;;;;;9.55;6.38;;;15.10;89.10;;;;;;5054927;28;20464;-65
2022/05/01 07:27:37;;;;;;;8.75;5.57;;;15.30;85.10;;;;;;5053263;28;20044;-65
2022/05/01 07:30:05;;;;;;;7.50;5.82;;;15.30;84.30;;;;;;5054249;28;20041;-64
2022/05/01 07:32:32;;;;;;;7.05;5.35;;;15.40;85.00;;;;;;5037164;28;20123;-64
2022/05/01 07:34:59;;;;;;;6.65;5.63;;;15.50;80.80;;;;;;5054049;28;20099;-65
2022/05/01 07:37:26;;;;;;;6.63;5.93;;;15.50;82.20;;;;;;5052574;28;20472;-65
2022/05/01 07:39:54;;;;;;;9.13;6.38;;;15.50;77.50;;;;;;5036577;28;20049;-65
2022/05/01 07:42:24;;;;;;;8.60;4.50;;;15.50;79.20;;;;;;5054237;28;20056;-65
2022/05/01 07:44:51;;;;;;;6.88;5.03;;;15.50;77.00;;;;;;5052710;28;20056;-65
2022/05/01 07:47:18;;;;;;;21.00;17.98;;;15.50;77.40;;;;;;5053613;28;20400;-63
2022/05/01 07:49:45;;;;;;;10.98;8.15;;;15.50;75.90;;;;;;5053855;28;20044;-63
2022/05/01 07:52:13;;;;;;;7.13;5.22;;;15.60;75.60;;;;;;5036844;28;20096;-64
2022/05/01 07:54:40;;;;;;;7.60;5.32;;;15.60;75.00;;;;;;5053749;28;20080;-65
2022/05/01 07:57:07;;;;;;;5.28;4.78;;;15.60;73.90;;;;;;5052661;28;20044;-64
2022/05/01 07:59:34;;;;;;;5.25;4.75;;;15.60;74.90;;;;;;5052488;28;20469;-64
2022/05/01 08:02:01;;;;;;;7.63;4.72;;;15.50;75.60;;;;;;5053679;28;20041;-64
2022/05/01 08:04:28;;;;;;;6.88;5.10;;;15.60;72.10;;;;;;5054025;28;20114;-64
2022/05/01 08:07:00;;;;;;;6.57;4.97;;;15.60;73.90;;;;;;5053561;28;20049;-64
2022/05/01 08:09:27;;;;;;;8.18;5.03;;;15.70;75.80;;;;;;5036306;28;20052;-65
2022/05/01 08:11:55;;;;;;;7.82;5.82;;;15.70;74.30;;;;;;5054149;28;20043;-65
2022/05/01 08:14:22;;;;;;;6.65;4.85;;;15.80;75.20;;;;;;5053672;28;20060;-64
2022/05/01 08:16:49;;;;;;;7.35;4.72;;;15.90;74.90;;;;;;5052846;28;20037;-65
2022/05/01 08:22:02;;;;;;;10.15;5.95;;;16.00;73.70;;;;;;5053362;28;20040;-65
2022/05/01 08:24:28;;;;;;;5.28;4.75;;;16.00;71.50;;;;;;5053758;28;20037;-65
2022/05/01 08:26:55;;;;;;;6.32;4.78;;;16.10;72.30;;;;;;5052720;28;20051;-65
2022/05/01 08:29:22;;;;;;;6.22;3.97;;;16.20;71.20;;;;;;5053490;28;20049;-65
2022/05/01 08:31:49;;;;;;;8.55;4.70;;;16.30;70.00;;;;;;5051882;28;20041;-65
2022/05/01 08:34:17;;;;;;;6.05;4.43;;;16.40;71.10;;;;;;5035638;28;20492;-65
2022/05/01 08:36:45;;;;;;;6.20;4.30;;;16.40;68.60;;;;;;5053628;28;20047;-65
2022/05/01 08:39:12;;;;;;;5.03;4.30;;;16.50;68.00;;;;;;5053076;28;20132;-65
2022/05/01 08:41:39;;;;;;;6.90;4.20;;;16.60;68.70;;;;;;5036279;28;20052;-66
2022/05/01 08:44:06;;;;;;;7.82;4.65;;;16.70;67.60;;;;;;5053042;28;20048;-66
2022/05/01 08:46:36;;;;;;;6.32;4.20;;;16.80;66.80;;;;;;5052399;28;20056;-63
2022/05/01 08:49:07;;;;;;;7.20;3.90;;;16.80;65.70;;;;;;5054274;28;20045;-64
2022/05/01 08:51:39;;;;;;;6.30;4.45;;;16.90;66.00;;;;;;5052050;28;20074;-64
2022/05/01 08:54:07;;;;;;;7.53;4.68;;;17.00;66.50;;;;;;5035553;28;20041;-64
2022/05/01 08:56:35;;;;;;;7.87;4.10;;;17.10;67.00;;;;;;5051821;28;20045;-65
2022/05/01 08:59:04;;;;;;;6.05;3.97;;;17.20;64.90;;;;;;5052711;28;20277;-65
2022/05/01 09:01:35;;;;;;;5.90;4.28;;;17.20;66.30;;;;;;5051568;28;20547;-65
2022/05/01 09:04:03;;;;;;;6.85;4.38;;;17.40;65.20;;;;;;5052016;28;20079;-65
2022/05/01 09:06:30;;;;;;;5.57;4.10;;;17.50;63.50;;;;;;5051875;28;20052;-64
2022/05/01 09:08:57;;;;;;;5.15;4.10;;;17.60;63.60;;;;;;5053572;28;20052;-64
2022/05/01 09:14:09;;;;;;;5.47;4.68;;;17.70;65.60;;;;;;5053889;28;20045;-65
2022/05/01 09:16:36;;;;;;;5.72;3.80;;;17.80;65.10;;;;;;5052306;28;20116;-64
2022/05/01 09:19:03;;;;;;;5.32;4.30;;;17.80;63.80;;;;;;5053805;28;20090;-62
2022/05/01 09:21:54;;;;;;;141.02;125.50;;;17.90;63.50;;;;;;5051671;28;20056;-65
2022/05/01 09:24:30;;;;;;;13.20;11.90;;;17.80;59.70;;;;;;5053017;28;20049;-65
2022/05/01 09:26:57;;;;;;;8.05;6.97;;;17.80;63.70;;;;;;5052603;28;20472;-65
2022/05/01 09:29:26;;;;;;;6.78;5.32;;;17.90;63.30;;;;;;5051265;28;20384;-65
2022/05/01 09:31:53;;;;;;;6.03;4.15;;;17.90;63.70;;;;;;5034924;28;20445;-64
2022/05/01 09:34:24;;;;;;;5.47;4.18;;;17.90;63.00;;;;;;5051332;28;20095;-64
2022/05/01 09:36:51;;;;;;;6.65;4.47;;;17.80;62.60;;;;;;5052613;28;20044;-65
2022/05/01 09:39:26;;;;;;;7.50;4.03;;;17.80;62.60;;;;;;5052996;28;20044;-65
2022/05/01 09:41:53;;;;;;;7.82;4.88;;;17.80;60.90;;;;;;5053019;28;20052;-66
2022/05/01 09:44:21;;;;;;;7.55;4.28;;;17.80;61.70;;;;;;5018546;28;20494;-65
2022/05/01 09:46:49;;;;;;;7.50;4.70;;;18.00;62.60;;;;;;5051326;28;20053;-66
2022/05/01 09:49:20;;;;;;;5.03;3.97;;;18.00;61.30;;;;;;5053415;28;20081;-66
2022/05/01 09:51:54;;;;;;;5.72;4.60;;;18.00;63.00;;;;;;5057297;28;20049;-66
2022/05/01 09:54:25;;;;;;;7.20;4.55;;;18.10;60.70;;;;;;5056589;28;20129;-65
2022/05/01 09:56:52;;;;;;;5.40;3.83;;;18.10;62.00;;;;;;5054723;28;20048;-64
2022/05/01 09:59:20;;;;;;;6.40;4.50;;;18.10;62.80;;;;;;5056374;28;20040;-65
2022/05/01 10:01:54;;;;;;;6.13;4.60;;;18.10;62.10;;;;;;5038224;28;20473;-64
2022/05/01 10:04:22;;;;;;;10.07;4.43;;;18.20;60.80;;;;;;5056038;28;20052;-65
2022/05/01 10:06:53;;;;;;;6.65;4.57;;;18.30;62.90;;;;;;5055618;28;20049;-64
2022/05/01 10:09:24;;;;;;;5.68;4.20;;;18.20;60.40;;;;;;5056370;28;20495;-64
2022/05/01 10:11:55;;;;;;;6.00;3.80;;;18.10;60.90;;;;;;5055913;28;20329;-64
2022/05/01 10:14:22;;;;;;;6.38;4.68;;;18.20;60.90;;;;;;5055934;28;20048;-64
2022/05/01 10:16:50;;;;;;;7.68;4.22;;;18.30;60.40;;;;;;5054250;28;20477;-64
2022/05/01 10:19:17;;;;;;;4.65;4.22;;;18.40;61.60;;;;;;5055442;28;20067;-64
2022/05/01 10:21:51;;;;;;;5.63;5.05;;;18.30;59.90;;;;;;5054406;28;20071;-64
2022/05/01 10:24:18;;;;;;;7.60;4.75;;;18.30;59.40;;;;;;5054270;28;20049;-64
2022/05/01 10:26:57;;;;;;;9.18;4.82;;;18.20;59.50;;;;;;5037895;28;20473;-64
2022/05/01 10:32:42;;;;;;;7.40;4.35;;;18.10;62.30;;;;;;5054958;28;20461;-65
2022/05/01 10:36:06;;;;;;;4.95;4.30;;;18.20;61.50;;;;;;5055244;28;20075;-65
2022/05/01 10:38:52;;;;;;;5.10;4.50;;;18.40;61.10;;;;;;5040474;28;20037;-64
2022/05/01 10:41:19;;;;;;;6.13;4.75;;;18.50;59.90;;;;;;5055159;28;20045;-64
2022/05/01 10:43:56;;;;;;;7.75;5.30;;;18.50;60.10;;;;;;5054280;28;20049;-65
2022/05/01 10:46:28;;;;;;;6.97;4.57;;;18.50;59.40;;;;;;5053884;28;20103;-65
2022/05/01 10:48:59;;;;;;;7.93;5.20;;;18.50;59.80;;;;;;5053812;28;20037;-65
2022/05/01 10:51:31;;;;;;;7.22;5.10;;;18.60;62.90;;;;;;5053734;28;20045;-65
2022/05/01 10:54:10;;;;;;;7.93;5.10;;;18.80;62.20;;;;;;5055715;28;20037;-65
2022/05/01 10:56:46;;;;;;;7.32;5.05;;;19.00;60.10;;;;;;5055495;28;20072;-65
2022/05/01 10:59:44;;;;;;;8.45;5.65;;;18.90;58.60;;;;;;5040780;28;20049;-65
2022/05/01 11:02:24;;;;;;;6.15;5.00;;;18.80;60.70;;;;;;5055310;28;20048;-65
2022/05/01 11:04:54;;;;;;;6.43;5.20;;;18.70;58.80;;;;;;5055440;28;20130;-65
2022/05/01 11:07:22;;;;;;;7.55;5.20;;;18.50;58.60;;;;;;5054890;28;20041;-66
2022/05/01 11:09:49;;;;;;;16.60;13.20;;;18.20;58.80;;;;;;5053258;28;20040;-70
2022/05/01 11:12:22;;;;;;;34.63;27.60;;;18.20;60.80;;;;;;5037483;28;20043;-69
2022/05/01 11:14:52;;;;;;;12.05;10.90;;;18.10;62.00;;;;;;5053479;28;20380;-64
2022/05/01 11:17:42;;;;;;;15.63;6.60;;;18.00;60.70;;;;;;5054654;28;20052;-68
2022/05/01 11:20:26;;;;;;;5.72;5.13;;;17.80;61.40;;;;;;5054364;28;20045;-65
2022/05/01 11:22:53;;;;;;;6.47;4.80;;;17.70;60.80;;;;;;5054706;28;20045;-64
2022/05/01 11:25:52;;;;;;;7.30;4.60;;;17.70;63.20;;;;;;5053672;28;20045;-66
2022/05/01 11:28:42;;;;;;;10.93;5.32;;;17.80;64.40;;;;;;5049505;28;20404;-70
2022/05/01 11:31:27;;;;;;;;;;;17.90;65.30;;;;;;5053428;28;20044;-68
2022/05/01 11:34:16;;;;;;;8.52;5.18;;;18.00;61.60;;;;;;5054247;28;19916;-69
2022/05/01 11:37:01;;;;;;;160.35;124.78;;;18.00;60.80;;;;;;5054623;28;20044;-64
2022/05/01 11:39:46;;;;;;;1113.95;603.13;;;18.10;64.30;;;;;;5054148;28;20053;-65
2022/05/01 11:42:35;;;;;;;220.65;165.02;;;18.20;64.30;;;;;;5054236;28;20457;-65
2022/05/01 11:45:04;;;;;;;61.90;45.27;;;18.30;66.00;;;;;;5053610;28;20049;-64
2022/05/01 11:47:32;;;;;;;24.48;17.38;;;18.30;64.70;;;;;;5053221;28;20349;-64
2022/05/01 11:49:59;;;;;;;13.20;9.40;;;18.20;67.40;;;;;;5052989;28;20056;-63
2022/05/01 11:52:26;;;;;;;9.50;7.30;;;18.00;66.50;;;;;;5053773;28;20049;-67
2022/05/01 11:54:57;;;;;;;8.55;6.68;;;17.80;66.50;;;;;;5052722;28;20045;-64
2022/05/01 12:03:06;;;;;;;135.98;121.72;;;17.40;68.70;;;;;;5039364;28;20043;-68
2022/05/01 12:05:49;;;;;;;20.20;16.75;;;17.30;71.30;;;;;;5054568;28;20044;-68
2022/05/01 12:08:19;;;;;;;9.73;8.02;;;17.20;71.00;;;;;;5052332;28;20464;-69
2022/05/01 12:10:46;;;;;;;10.73;6.45;;;17.10;72.00;;;;;;5035439;28;20049;-69
2022/05/01 12:13:23;;;;;;;6.65;5.53;;;16.90;71.50;;;;;;5053898;28;20465;-69
2022/05/01 12:15:51;;;;;;;8.40;6.78;;;16.80;72.50;;;;;;5053308;28;20052;-69
2022/05/01 12:18:18;;;;;;;8.60;6.97;;;16.60;73.90;;;;;;5051996;28;20102;-69
2022/05/01 12:20:45;;;;;;;12.32;7.13;;;16.50;74.10;;;;;;5035898;28;20052;-69
2022/05/01 12:23:12;;;;;;;7.55;6.00;;;16.40;76.00;;;;;;5054075;28;20445;-69
2022/05/01 12:25:41;;;;;;;6.72;5.40;;;16.30;76.80;;;;;;5053119;28;20045;-71
2022/05/01 12:28:11;;;;;;;10.18;8.05;;;16.20;77.90;;;;;;5035704;28;20078;-69
2022/05/01 12:30:42;;;;;;;10.90;6.50;;;16.10;77.80;;;;;;5052218;28;20124;-69
2022/05/01 12:33:25;;;;;;;8.02;6.50;;;16.10;79.50;;;;;;5053272;28;20056;-69
2022/05/01 12:35:58;;;;;;;7.15;6.45;;;16.10;78.90;;;;;;5052364;28;20045;-69
2022/05/01 12:38:27;;;;;;;8.63;6.60;;;16.10;78.40;;;;;;5053067;28;20055;-68
2022/05/01 12:43:55;;;;;;;41.90;32.22;;;16.10;78.20;;;;;;5052494;28;20052;-69
2022/05/01 12:46:32;;;;;;;103.20;87.70;;;16.20;76.80;;;;;;5036041;28;20052;-68
2022/05/01 12:49:01;;;;;;;31.05;27.95;;;16.30;78.00;;;;;;5052003;28;20056;-68
2022/05/01 12:51:35;;;;;;;11.30;9.82;;;16.40;79.30;;;;;;5035749;28;20049;-69
2022/05/01 12:54:17;;;;;;;7.78;6.75;;;16.50;78.20;;;;;;5035438;28;20045;-68
2022/05/01 12:56:47;;;;;;;9.75;7.20;;;16.60;77.70;;;;;;5037261;28;20048;-68
2022/05/01 12:59:30;;;;;;;7.65;6.43;;;16.70;80.40;;;;;;5036864;28;20041;-66
2022/05/01 13:01:58;;;;;;;193.07;172.07;;;16.80;78.50;;;;;;5051885;28;20093;-67
2022/05/01 13:04:29;;;;;;;28.55;24.77;;;16.80;82.10;;;;;;5035435;28;20479;-67
2022/05/01 13:06:56;;;;;;;12.73;11.45;;;16.80;81.60;;;;;;5052641;28;20045;-68
2022/05/01 13:09:23;;;;;;;9.93;8.30;;;16.80;85.60;;;;;;5052168;28;20060;-67
2022/05/01 13:12:00;;;;;;;10.45;8.20;;;16.80;83.60;;;;;;5036372;28;20044;-67
2022/05/01 13:14:30;;;;;;;11.07;7.70;;;16.70;86.40;;;;;;5052551;28;20041;-68
2022/05/01 13:17:12;;;;;;;11.05;8.70;;;16.70;90.00;;;;;;5052032;28;20049;-70
2022/05/01 13:19:41;;;;;;;10.00;7.97;;;16.70;90.30;;;;;;5053881;28;20075;-69
2022/05/01 13:22:09;;;;;;;12.85;9.38;;;16.70;93.50;;;;;;5052295;28;20060;-67